sensor_id;sensor_type;location;lat;lon;timestamp;P1;durP1;ratioP1;P2;durP2;ratioP2
21392;SDS011;10857;52.228;21.026;2023-12-22T00:02:21;12.03;;;3.07;;
21392;SDS011;10857;52.228;21.026;2023-12-22T00:04:50;14.20;;;2.90;;
21392;SDS011;10857;52.228;21.026;2023-12-22T00:07:17;9.03;;;2.50;;
21392;SDS011;10857;52.228;21.026;2023-12-22T00:09:46;11.10;;;2.57;;
21392;SDS011;10857;52.228;21.026;2023-12-22T00:12:13;8.50;;;2.27;;
21392;SDS011;10857;52.228;21.026;2023-12-22T00:14:41;11.53;;;2.60;;
21392;SDS011;10857;52.228;21.026;2023-12-22T00:17:08;13.33;;;2.50;;
21392;SDS011;10857;52.228;21.026;2023-12-22T00:19:35;9.10;;;2.50;;
21392;SDS011;10857;52.228;21.026;2023-12-22T00:22:02;13.27;;;2.83;;
21392;SDS011;10857;52.228;21.026;2023-12-22T00:24:30;15.33;;;2.80;;
21392;SDS011;10857;52.228;21.026;2023-12-22T00:26:57;12.10;;;2.50;;
21392;SDS011;10857;52.228;21.026;2023-12-22T00:29:24;10.03;;;2.40;;
21392;SDS011;10857;52.228;21.026;2023-12-22T00:31:51;9.53;;;2.47;;
21392;SDS011;10857;52.228;21.026;2023-12-22T00:34:18;8.43;;;2.30;;
21392;SDS011;10857;52.228;21.026;2023-12-22T00:36:47;10.53;;;2.70;;
21392;SDS011;10857;52.228;21.026;2023-12-22T00:39:14;11.50;;;2.63;;
21392;SDS011;10857;52.228;21.026;2023-12-22T00:41:41;7.07;;;2.40;;
21392;SDS011;10857;52.228;21.026;2023-12-22T00:44:08;8.67;;;2.60;;
21392;SDS011;10857;52.228;21.026;2023-12-22T00:46:35;11.30;;;2.43;;
21392;SDS011;10857;52.228;21.026;2023-12-22T00:49:02;11.70;;;2.37;;
21392;SDS011;10857;52.228;21.026;2023-12-22T00:51:30;8.80;;;2.53;;
21392;SDS011;10857;52.228;21.026;2023-12-22T00:53:57;10.87;;;2.50;;
21392;SDS011;10857;52.228;21.026;2023-12-22T00:56:24;13.63;;;2.87;;
21392;SDS011;10857;52.228;21.026;2023-12-22T00:58:51;10.00;;;2.73;;
21392;SDS011;10857;52.228;21.026;2023-12-22T01:01:30;12.07;;;2.60;;
21392;SDS011;10857;52.228;21.026;2023-12-22T01:03:57;13.70;;;2.53;;
21392;SDS011;10857;52.228;21.026;2023-12-22T01:06:25;10.30;;;2.20;;
21392;SDS011;10857;52.228;21.026;2023-12-22T01:08:55;14.53;;;2.47;;
21392;SDS011;10857;52.228;21.026;2023-12-22T01:11:22;12.83;;;2.50;;
21392;SDS011;10857;52.228;21.026;2023-12-22T01:13:49;10.13;;;2.80;;
21392;SDS011;10857;52.228;21.026;2023-12-22T01:16:16;7.63;;;2.70;;
21392;SDS011;10857;52.228;21.026;2023-12-22T01:18:46;11.37;;;2.60;;
21392;SDS011;10857;52.228;21.026;2023-12-22T01:21:13;12.70;;;2.50;;
21392;SDS011;10857;52.228;21.026;2023-12-22T01:23:40;10.83;;;2.53;;
21392;SDS011;10857;52.228;21.026;2023-12-22T01:26:07;16.47;;;2.73;;
21392;SDS011;10857;52.228;21.026;2023-12-22T01:28:34;11.83;;;3.03;;
21392;SDS011;10857;52.228;21.026;2023-12-22T01:31:03;15.00;;;2.70;;
21392;SDS011;10857;52.228;21.026;2023-12-22T01:33:30;16.30;;;3.07;;
21392;SDS011;10857;52.228;21.026;2023-12-22T01:35:57;11.70;;;2.53;;
21392;SDS011;10857;52.228;21.026;2023-12-22T01:38:24;8.70;;;2.60;;
21392;SDS011;10857;52.228;21.026;2023-12-22T01:40:51;12.13;;;2.73;;
21392;SDS011;10857;52.228;21.026;2023-12-22T01:43:18;14.37;;;2.63;;
21392;SDS011;10857;52.228;21.026;2023-12-22T01:45:49;14.63;;;3.10;;
21392;SDS011;10857;52.228;21.026;2023-12-22T01:48:22;16.47;;;2.80;;
21392;SDS011;10857;52.228;21.026;2023-12-22T01:50:51;15.80;;;2.90;;
21392;SDS011;10857;52.228;21.026;2023-12-22T01:53:21;15.87;;;2.93;;
21392;SDS011;10857;52.228;21.026;2023-12-22T01:55:50;12.83;;;2.80;;
21392;SDS011;10857;52.228;21.026;2023-12-22T01:58:19;13.67;;;2.80;;
21392;SDS011;10857;52.228;21.026;2023-12-22T02:00:47;15.20;;;2.80;;
21392;SDS011;10857;52.228;21.026;2023-12-22T02:03:14;11.37;;;2.57;;
21392;SDS011;10857;52.228;21.026;2023-12-22T02:05:43;14.70;;;2.73;;
21392;SDS011;10857;52.228;21.026;2023-12-22T02:08:11;9.27;;;2.40;;
21392;SDS011;10857;52.228;21.026;2023-12-22T02:10:38;12.20;;;2.57;;
21392;SDS011;10857;52.228;21.026;2023-12-22T02:13:06;14.57;;;2.73;;
21392;SDS011;10857;52.228;21.026;2023-12-22T02:15:33;9.63;;;2.37;;
21392;SDS011;10857;52.228;21.026;2023-12-22T02:18:21;14.13;;;2.70;;
21392;SDS011;10857;52.228;21.026;2023-12-22T02:20:52;7.20;;;2.43;;
21392;SDS011;10857;52.228;21.026;2023-12-22T02:23:19;15.53;;;3.77;;
21392;SDS011;10857;52.228;21.026;2023-12-22T02:25:47;11.83;;;2.63;;
21392;SDS011;10857;52.228;21.026;2023-12-22T02:28:16;19.33;;;2.30;;
21392;SDS011;10857;52.228;21.026;2023-12-22T02:30:49;10.40;;;2.83;;
21392;SDS011;10857;52.228;21.026;2023-12-22T02:33:23;10.77;;;2.70;;
21392;SDS011;10857;52.228;21.026;2023-12-22T02:35:53;16.33;;;2.90;;
21392;SDS011;10857;52.228;21.026;2023-12-22T02:38:24;13.43;;;2.83;;
21392;SDS011;10857;52.228;21.026;2023-12-22T02:40:52;9.17;;;2.80;;
21392;SDS011;10857;52.228;21.026;2023-12-22T02:43:19;14.27;;;3.33;;
21392;SDS011;10857;52.228;21.026;2023-12-22T02:45:50;14.57;;;3.00;;
21392;SDS011;10857;52.228;21.026;2023-12-22T02:48:17;12.90;;;2.90;;
21392;SDS011;10857;52.228;21.026;2023-12-22T02:50:45;17.27;;;3.00;;
21392;SDS011;10857;52.228;21.026;2023-12-22T02:53:12;14.53;;;3.00;;
21392;SDS011;10857;52.228;21.026;2023-12-22T02:55:39;13.73;;;2.93;;
21392;SDS011;10857;52.228;21.026;2023-12-22T02:58:06;10.97;;;2.73;;
21392;SDS011;10857;52.228;21.026;2023-12-22T03:00:33;14.93;;;2.80;;
21392;SDS011;10857;52.228;21.026;2023-12-22T03:03:00;10.30;;;2.83;;
21392;SDS011;10857;52.228;21.026;2023-12-22T03:05:27;14.97;;;2.90;;
21392;SDS011;10857;52.228;21.026;2023-12-22T03:07:54;11.33;;;2.80;;
21392;SDS011;10857;52.228;21.026;2023-12-22T03:10:21;12.60;;;2.77;;
21392;SDS011;10857;52.228;21.026;2023-12-22T03:12:48;10.90;;;2.10;;
21392;SDS011;10857;52.228;21.026;2023-12-22T03:15:15;12.97;;;2.73;;
21392;SDS011;10857;52.228;21.026;2023-12-22T03:17:42;11.43;;;2.80;;
21392;SDS011;10857;52.228;21.026;2023-12-22T03:20:09;9.93;;;2.67;;
21392;SDS011;10857;52.228;21.026;2023-12-22T03:22:36;12.27;;;2.97;;
21392;SDS011;10857;52.228;21.026;2023-12-22T03:25:03;12.70;;;3.00;;
21392;SDS011;10857;52.228;21.026;2023-12-22T03:27:31;13.77;;;3.10;;
21392;SDS011;10857;52.228;21.026;2023-12-22T03:29:58;17.20;;;3.00;;
21392;SDS011;10857;52.228;21.026;2023-12-22T03:32:25;14.90;;;3.23;;
21392;SDS011;10857;52.228;21.026;2023-12-22T03:34:52;14.27;;;3.50;;
21392;SDS011;10857;52.228;21.026;2023-12-22T03:37:19;12.97;;;2.87;;
21392;SDS011;10857;52.228;21.026;2023-12-22T03:39:46;14.77;;;3.00;;
21392;SDS011;10857;52.228;21.026;2023-12-22T03:42:13;13.50;;;2.70;;
21392;SDS011;10857;52.228;21.026;2023-12-22T03:44:40;19.43;;;3.23;;
21392;SDS011;10857;52.228;21.026;2023-12-22T03:47:07;12.47;;;3.27;;
21392;SDS011;10857;52.228;21.026;2023-12-22T03:49:34;14.73;;;3.27;;
21392;SDS011;10857;52.228;21.026;2023-12-22T03:52:01;11.00;;;3.10;;
21392;SDS011;10857;52.228;21.026;2023-12-22T03:54:28;13.73;;;3.37;;
21392;SDS011;10857;52.228;21.026;2023-12-22T03:56:55;17.00;;;3.10;;
21392;SDS011;10857;52.228;21.026;2023-12-22T03:59:22;12.00;;;3.20;;
21392;SDS011;10857;52.228;21.026;2023-12-22T04:01:52;15.47;;;3.00;;
21392;SDS011;10857;52.228;21.026;2023-12-22T04:04:21;13.87;;;3.67;;
21392;SDS011;10857;52.228;21.026;2023-12-22T04:06:50;17.00;;;3.30;;
21392;SDS011;10857;52.228;21.026;2023-12-22T04:09:17;14.70;;;2.90;;
21392;SDS011;10857;52.228;21.026;2023-12-22T04:11:44;15.00;;;3.40;;
21392;SDS011;10857;52.228;21.026;2023-12-22T04:14:11;16.83;;;3.60;;
21392;SDS011;10857;52.228;21.026;2023-12-22T04:16:38;14.30;;;3.10;;
21392;SDS011;10857;52.228;21.026;2023-12-22T04:19:05;12.40;;;3.57;;
21392;SDS011;10857;52.228;21.026;2023-12-22T04:21:37;15.23;;;2.90;;
21392;SDS011;10857;52.228;21.026;2023-12-22T04:24:05;17.07;;;3.20;;
21392;SDS011;10857;52.228;21.026;2023-12-22T04:26:32;14.97;;;3.17;;
21392;SDS011;10857;52.228;21.026;2023-12-22T04:28:59;14.73;;;3.33;;
21392;SDS011;10857;52.228;21.026;2023-12-22T04:31:26;10.13;;;2.67;;
21392;SDS011;10857;52.228;21.026;2023-12-22T04:33:53;14.23;;;3.53;;
21392;SDS011;10857;52.228;21.026;2023-12-22T04:36:22;19.00;;;3.57;;
21392;SDS011;10857;52.228;21.026;2023-12-22T04:38:49;11.37;;;2.87;;
21392;SDS011;10857;52.228;21.026;2023-12-22T04:41:16;16.57;;;2.97;;
21392;SDS011;10857;52.228;21.026;2023-12-22T04:43:43;11.43;;;3.13;;
21392;SDS011;10857;52.228;21.026;2023-12-22T04:46:10;11.93;;;3.63;;
21392;SDS011;10857;52.228;21.026;2023-12-22T04:48:38;12.40;;;3.27;;
21392;SDS011;10857;52.228;21.026;2023-12-22T04:51:05;19.40;;;3.37;;
21392;SDS011;10857;52.228;21.026;2023-12-22T04:53:32;14.67;;;3.00;;
21392;SDS011;10857;52.228;21.026;2023-12-22T04:55:59;12.63;;;3.07;;
21392;SDS011;10857;52.228;21.026;2023-12-22T04:58:26;13.00;;;3.03;;
21392;SDS011;10857;52.228;21.026;2023-12-22T05:00:53;14.90;;;3.17;;
21392;SDS011;10857;52.228;21.026;2023-12-22T05:03:21;12.17;;;3.00;;
21392;SDS011;10857;52.228;21.026;2023-12-22T05:05:48;13.10;;;2.80;;
21392;SDS011;10857;52.228;21.026;2023-12-22T05:08:15;13.93;;;3.13;;
21392;SDS011;10857;52.228;21.026;2023-12-22T05:10:42;15.20;;;3.33;;
21392;SDS011;10857;52.228;21.026;2023-12-22T05:13:10;13.00;;;3.20;;
21392;SDS011;10857;52.228;21.026;2023-12-22T05:15:37;18.97;;;3.70;;
21392;SDS011;10857;52.228;21.026;2023-12-22T05:18:04;16.20;;;3.17;;
21392;SDS011;10857;52.228;21.026;2023-12-22T05:20:31;15.67;;;3.50;;
21392;SDS011;10857;52.228;21.026;2023-12-22T05:22:59;15.40;;;3.17;;
21392;SDS011;10857;52.228;21.026;2023-12-22T05:25:26;14.43;;;3.13;;
21392;SDS011;10857;52.228;21.026;2023-12-22T05:27:53;14.37;;;3.53;;
21392;SDS011;10857;52.228;21.026;2023-12-22T05:30:20;16.23;;;3.17;;
21392;SDS011;10857;52.228;21.026;2023-12-22T05:32:47;17.17;;;3.13;;
21392;SDS011;10857;52.228;21.026;2023-12-22T05:35:14;17.07;;;3.10;;
21392;SDS011;10857;52.228;21.026;2023-12-22T05:37:41;16.03;;;3.50;;
21392;SDS011;10857;52.228;21.026;2023-12-22T05:40:08;15.43;;;3.70;;
21392;SDS011;10857;52.228;21.026;2023-12-22T05:42:36;13.37;;;3.10;;
21392;SDS011;10857;52.228;21.026;2023-12-22T05:45:03;16.33;;;3.70;;
21392;SDS011;10857;52.228;21.026;2023-12-22T05:47:30;11.30;;;2.97;;
21392;SDS011;10857;52.228;21.026;2023-12-22T05:49:58;19.67;;;3.87;;
21392;SDS011;10857;52.228;21.026;2023-12-22T05:52:25;17.77;;;3.77;;
21392;SDS011;10857;52.228;21.026;2023-12-22T05:54:52;19.53;;;3.50;;
21392;SDS011;10857;52.228;21.026;2023-12-22T05:57:20;12.43;;;3.43;;
21392;SDS011;10857;52.228;21.026;2023-12-22T05:59:47;16.63;;;3.37;;
21392;SDS011;10857;52.228;21.026;2023-12-22T06:02:14;13.83;;;2.90;;
21392;SDS011;10857;52.228;21.026;2023-12-22T06:04:41;21.93;;;3.60;;
21392;SDS011;10857;52.228;21.026;2023-12-22T06:07:10;17.23;;;3.63;;
21392;SDS011;10857;52.228;21.026;2023-12-22T06:09:37;18.33;;;3.80;;
21392;SDS011;10857;52.228;21.026;2023-12-22T06:12:06;19.60;;;3.57;;
21392;SDS011;10857;52.228;21.026;2023-12-22T06:14:37;16.53;;;3.60;;
21392;SDS011;10857;52.228;21.026;2023-12-22T06:17:04;21.80;;;3.60;;
21392;SDS011;10857;52.228;21.026;2023-12-22T06:19:31;16.97;;;3.63;;
21392;SDS011;10857;52.228;21.026;2023-12-22T06:21:58;15.27;;;3.27;;
21392;SDS011;10857;52.228;21.026;2023-12-22T06:24:26;23.60;;;3.63;;
21392;SDS011;10857;52.228;21.026;2023-12-22T06:26:53;17.10;;;3.50;;
21392;SDS011;10857;52.228;21.026;2023-12-22T06:29:20;24.27;;;3.70;;
21392;SDS011;10857;52.228;21.026;2023-12-22T06:31:47;17.90;;;3.20;;
21392;SDS011;10857;52.228;21.026;2023-12-22T06:34:18;18.37;;;3.40;;
21392;SDS011;10857;52.228;21.026;2023-12-22T06:36:45;17.07;;;3.43;;
21392;SDS011;10857;52.228;21.026;2023-12-22T06:39:12;15.33;;;3.20;;
21392;SDS011;10857;52.228;21.026;2023-12-22T06:41:39;23.83;;;3.70;;
21392;SDS011;10857;52.228;21.026;2023-12-22T06:44:06;17.13;;;3.53;;
21392;SDS011;10857;52.228;21.026;2023-12-22T06:46:33;15.63;;;2.97;;
21392;SDS011;10857;52.228;21.026;2023-12-22T06:49:00;16.03;;;3.17;;
21392;SDS011;10857;52.228;21.026;2023-12-22T06:51:31;21.00;;;3.23;;
21392;SDS011;10857;52.228;21.026;2023-12-22T06:54:02;14.47;;;2.87;;
21392;SDS011;10857;52.228;21.026;2023-12-22T06:56:31;13.70;;;2.70;;
21392;SDS011;10857;52.228;21.026;2023-12-22T06:59:00;15.30;;;3.00;;
21392;SDS011;10857;52.228;21.026;2023-12-22T07:01:28;13.17;;;2.13;;
21392;SDS011;10857;52.228;21.026;2023-12-22T07:04:01;10.70;;;2.60;;
21392;SDS011;10857;52.228;21.026;2023-12-22T07:06:30;15.10;;;3.00;;
21392;SDS011;10857;52.228;21.026;2023-12-22T07:11:41;12.90;;;2.30;;
21392;SDS011;10857;52.228;21.026;2023-12-22T07:14:09;12.07;;;2.00;;
21392;SDS011;10857;52.228;21.026;2023-12-22T07:16:38;19.10;;;3.53;;
21392;SDS011;10857;52.228;21.026;2023-12-22T07:19:05;16.17;;;2.80;;
21392;SDS011;10857;52.228;21.026;2023-12-22T07:21:33;13.73;;;2.77;;
21392;SDS011;10857;52.228;21.026;2023-12-22T07:24:00;14.57;;;2.57;;
21392;SDS011;10857;52.228;21.026;2023-12-22T07:26:27;16.53;;;2.80;;
21392;SDS011;10857;52.228;21.026;2023-12-22T07:28:54;14.87;;;3.00;;
21392;SDS011;10857;52.228;21.026;2023-12-22T07:31:22;14.32;;;3.53;;
21392;SDS011;10857;52.228;21.026;2023-12-22T07:33:49;12.60;;;2.87;;
21392;SDS011;10857;52.228;21.026;2023-12-22T07:36:16;15.13;;;2.37;;
21392;SDS011;10857;52.228;21.026;2023-12-22T07:38:46;11.70;;;2.83;;
21392;SDS011;10857;52.228;21.026;2023-12-22T07:41:13;14.43;;;2.60;;
21392;SDS011;10857;52.228;21.026;2023-12-22T07:43:42;20.40;;;2.67;;
21392;SDS011;10857;52.228;21.026;2023-12-22T07:46:16;14.00;;;2.70;;
21392;SDS011;10857;52.228;21.026;2023-12-22T07:48:48;10.73;;;2.37;;
21392;SDS011;10857;52.228;21.026;2023-12-22T07:51:15;15.83;;;2.60;;
21392;SDS011;10857;52.228;21.026;2023-12-22T07:53:42;12.23;;;2.33;;
21392;SDS011;10857;52.228;21.026;2023-12-22T07:56:10;11.67;;;2.50;;
21392;SDS011;10857;52.228;21.026;2023-12-22T07:58:38;12.70;;;3.00;;
21392;SDS011;10857;52.228;21.026;2023-12-22T08:01:06;15.83;;;2.57;;
21392;SDS011;10857;52.228;21.026;2023-12-22T08:03:33;14.60;;;2.60;;
21392;SDS011;10857;52.228;21.026;2023-12-22T08:06:00;15.93;;;2.50;;
21392;SDS011;10857;52.228;21.026;2023-12-22T08:08:28;16.67;;;2.47;;
21392;SDS011;10857;52.228;21.026;2023-12-22T08:10:55;13.43;;;3.00;;
21392;SDS011;10857;52.228;21.026;2023-12-22T08:13:23;12.57;;;2.77;;
21392;SDS011;10857;52.228;21.026;2023-12-22T08:15:50;12.80;;;2.47;;
21392;SDS011;10857;52.228;21.026;2023-12-22T08:18:17;12.87;;;2.93;;
21392;SDS011;10857;52.228;21.026;2023-12-22T08:20:44;18.87;;;2.40;;
21392;SDS011;10857;52.228;21.026;2023-12-22T08:23:14;8.03;;;2.30;;
21392;SDS011;10857;52.228;21.026;2023-12-22T08:25:42;11.83;;;2.53;;
21392;SDS011;10857;52.228;21.026;2023-12-22T08:28:10;12.37;;;2.73;;
21392;SDS011;10857;52.228;21.026;2023-12-22T08:30:39;11.33;;;2.07;;
21392;SDS011;10857;52.228;21.026;2023-12-22T08:33:06;13.93;;;2.80;;
21392;SDS011;10857;52.228;21.026;2023-12-22T08:35:34;10.40;;;2.22;;
21392;SDS011;10857;52.228;21.026;2023-12-22T08:38:01;10.97;;;2.40;;
21392;SDS011;10857;52.228;21.026;2023-12-22T08:40:29;13.57;;;2.57;;
21392;SDS011;10857;52.228;21.026;2023-12-22T08:42:57;11.13;;;2.30;;
21392;SDS011;10857;52.228;21.026;2023-12-22T08:45:27;8.70;;;2.30;;
21392;SDS011;10857;52.228;21.026;2023-12-22T08:47:56;13.27;;;2.73;;
21392;SDS011;10857;52.228;21.026;2023-12-22T08:50:23;13.97;;;2.70;;
21392;SDS011;10857;52.228;21.026;2023-12-22T08:52:51;11.10;;;2.60;;
21392;SDS011;10857;52.228;21.026;2023-12-22T08:55:18;18.67;;;2.47;;
21392;SDS011;10857;52.228;21.026;2023-12-22T08:57:45;16.13;;;2.50;;
21392;SDS011;10857;52.228;21.026;2023-12-22T09:00:24;16.67;;;2.93;;
21392;SDS011;10857;52.228;21.026;2023-12-22T09:02:52;10.97;;;2.97;;
21392;SDS011;10857;52.228;21.026;2023-12-22T09:05:20;11.47;;;2.63;;
21392;SDS011;10857;52.228;21.026;2023-12-22T09:07:48;14.37;;;3.20;;
21392;SDS011;10857;52.228;21.026;2023-12-22T09:10:16;17.97;;;2.90;;
21392;SDS011;10857;52.228;21.026;2023-12-22T09:12:43;17.97;;;3.03;;
21392;SDS011;10857;52.228;21.026;2023-12-22T09:15:10;11.17;;;2.30;;
21392;SDS011;10857;52.228;21.026;2023-12-22T09:17:37;9.70;;;2.13;;
21392;SDS011;10857;52.228;21.026;2023-12-22T09:20:07;14.53;;;3.13;;
21392;SDS011;10857;52.228;21.026;2023-12-22T09:22:34;10.37;;;2.53;;
21392;SDS011;10857;52.228;21.026;2023-12-22T09:25:01;16.23;;;2.90;;
21392;SDS011;10857;52.228;21.026;2023-12-22T09:27:29;13.50;;;2.60;;
21392;SDS011;10857;52.228;21.026;2023-12-22T09:29:57;11.00;;;2.17;;
21392;SDS011;10857;52.228;21.026;2023-12-22T09:32:24;14.73;;;2.80;;
21392;SDS011;10857;52.228;21.026;2023-12-22T09:34:52;13.27;;;2.20;;
21392;SDS011;10857;52.228;21.026;2023-12-22T09:37:21;12.10;;;2.43;;
21392;SDS011;10857;52.228;21.026;2023-12-22T09:39:48;14.90;;;3.20;;
21392;SDS011;10857;52.228;21.026;2023-12-22T09:42:15;15.07;;;3.50;;
21392;SDS011;10857;52.228;21.026;2023-12-22T09:44:42;12.90;;;2.90;;
21392;SDS011;10857;52.228;21.026;2023-12-22T09:47:10;14.43;;;2.57;;
21392;SDS011;10857;52.228;21.026;2023-12-22T09:49:38;8.80;;;2.30;;
21392;SDS011;10857;52.228;21.026;2023-12-22T09:52:08;12.90;;;2.40;;
21392;SDS011;10857;52.228;21.026;2023-12-22T09:54:36;11.47;;;2.50;;
21392;SDS011;10857;52.228;21.026;2023-12-22T09:57:04;14.20;;;2.83;;
21392;SDS011;10857;52.228;21.026;2023-12-22T09:59:48;12.80;;;2.30;;
21392;SDS011;10857;52.228;21.026;2023-12-22T10:02:17;12.27;;;2.67;;
21392;SDS011;10857;52.228;21.026;2023-12-22T10:04:45;12.27;;;3.07;;
21392;SDS011;10857;52.228;21.026;2023-12-22T10:07:12;11.20;;;2.50;;
21392;SDS011;10857;52.228;21.026;2023-12-22T10:09:41;8.93;;;1.70;;
21392;SDS011;10857;52.228;21.026;2023-12-22T10:12:09;10.60;;;2.40;;
21392;SDS011;10857;52.228;21.026;2023-12-22T10:14:38;14.33;;;2.83;;
21392;SDS011;10857;52.228;21.026;2023-12-22T10:17:07;10.17;;;1.70;;
21392;SDS011;10857;52.228;21.026;2023-12-22T10:19:34;4.67;;;1.43;;
21392;SDS011;10857;52.228;21.026;2023-12-22T10:22:01;8.53;;;1.50;;
21392;SDS011;10857;52.228;21.026;2023-12-22T10:27:09;5.33;;;1.10;;
21392;SDS011;10857;52.228;21.026;2023-12-22T10:29:37;4.93;;;1.40;;
21392;SDS011;10857;52.228;21.026;2023-12-22T10:32:04;6.45;;;1.50;;
21392;SDS011;10857;52.228;21.026;2023-12-22T10:34:34;6.30;;;1.40;;
21392;SDS011;10857;52.228;21.026;2023-12-22T10:37:02;5.33;;;1.10;;
21392;SDS011;10857;52.228;21.026;2023-12-22T10:39:30;5.10;;;1.60;;
21392;SDS011;10857;52.228;21.026;2023-12-22T10:41:58;4.47;;;1.03;;
21392;SDS011;10857;52.228;21.026;2023-12-22T10:44:26;1.77;;;0.70;;
21392;SDS011;10857;52.228;21.026;2023-12-22T10:46:55;3.63;;;1.00;;
21392;SDS011;10857;52.228;21.026;2023-12-22T10:49:23;2.70;;;0.93;;
21392;SDS011;10857;52.228;21.026;2023-12-22T10:51:51;4.33;;;1.03;;
21392;SDS011;10857;52.228;21.026;2023-12-22T10:54:19;2.03;;;1.00;;
21392;SDS011;10857;52.228;21.026;2023-12-22T10:56:46;2.57;;;1.40;;
21392;SDS011;10857;52.228;21.026;2023-12-22T10:59:16;2.57;;;1.50;;
21392;SDS011;10857;52.228;21.026;2023-12-22T11:01:45;3.40;;;1.43;;
21392;SDS011;10857;52.228;21.026;2023-12-22T11:04:17;5.60;;;1.70;;
21392;SDS011;10857;52.228;21.026;2023-12-22T11:06:47;5.53;;;1.57;;
21392;SDS011;10857;52.228;21.026;2023-12-22T11:09:16;9.07;;;2.00;;
21392;SDS011;10857;52.228;21.026;2023-12-22T11:11:45;6.83;;;1.90;;
21392;SDS011;10857;52.228;21.026;2023-12-22T11:14:13;6.73;;;2.00;;
21392;SDS011;10857;52.228;21.026;2023-12-22T11:16:41;11.40;;;2.30;;
21392;SDS011;10857;52.228;21.026;2023-12-22T11:19:15;6.40;;;2.00;;
21392;SDS011;10857;52.228;21.026;2023-12-22T11:21:42;8.90;;;1.80;;
21392;SDS011;10857;52.228;21.026;2023-12-22T11:24:11;17.47;;;2.77;;
21392;SDS011;10857;52.228;21.026;2023-12-22T11:26:43;6.33;;;2.03;;
21392;SDS011;10857;52.228;21.026;2023-12-22T11:29:13;5.13;;;2.13;;
21392;SDS011;10857;52.228;21.026;2023-12-22T11:31:44;7.90;;;2.37;;
21392;SDS011;10857;52.228;21.026;2023-12-22T11:34:14;15.27;;;2.30;;
21392;SDS011;10857;52.228;21.026;2023-12-22T11:36:45;11.83;;;2.40;;
21392;SDS011;10857;52.228;21.026;2023-12-22T11:39:14;6.53;;;2.17;;
21392;SDS011;10857;52.228;21.026;2023-12-22T11:41:41;7.97;;;2.20;;
21392;SDS011;10857;52.228;21.026;2023-12-22T11:44:09;7.67;;;2.50;;
21392;SDS011;10857;52.228;21.026;2023-12-22T11:46:37;8.03;;;2.50;;
21392;SDS011;10857;52.228;21.026;2023-12-22T11:49:04;10.13;;;2.63;;
21392;SDS011;10857;52.228;21.026;2023-12-22T11:51:32;8.90;;;2.40;;
21392;SDS011;10857;52.228;21.026;2023-12-22T11:54:03;9.60;;;3.03;;
21392;SDS011;10857;52.228;21.026;2023-12-22T11:56:30;9.07;;;3.13;;
21392;SDS011;10857;52.228;21.026;2023-12-22T11:58:58;9.63;;;3.40;;
21392;SDS011;10857;52.228;21.026;2023-12-22T12:01:25;8.27;;;3.00;;
21392;SDS011;10857;52.228;21.026;2023-12-22T12:04:00;6.10;;;2.70;;
21392;SDS011;10857;52.228;21.026;2023-12-22T12:06:33;9.73;;;3.03;;
21392;SDS011;10857;52.228;21.026;2023-12-22T12:09:04;7.73;;;3.00;;
21392;SDS011;10857;52.228;21.026;2023-12-22T12:14:26;10.27;;;3.50;;
21392;SDS011;10857;52.228;21.026;2023-12-22T12:17:08;8.10;;;3.20;;
21392;SDS011;10857;52.228;21.026;2023-12-22T12:19:37;8.17;;;3.17;;
21392;SDS011;10857;52.228;21.026;2023-12-22T12:22:08;10.47;;;3.30;;
21392;SDS011;10857;52.228;21.026;2023-12-22T12:24:37;7.70;;;3.00;;
21392;SDS011;10857;52.228;21.026;2023-12-22T12:27:05;9.43;;;2.60;;
21392;SDS011;10857;52.228;21.026;2023-12-22T12:29:32;10.27;;;3.27;;
21392;SDS011;10857;52.228;21.026;2023-12-22T12:32:03;7.43;;;2.80;;
21392;SDS011;10857;52.228;21.026;2023-12-22T12:34:33;8.20;;;2.80;;
21392;SDS011;10857;52.228;21.026;2023-12-22T12:37:01;8.37;;;2.83;;
21392;SDS011;10857;52.228;21.026;2023-12-22T12:39:30;9.10;;;2.87;;
21392;SDS011;10857;52.228;21.026;2023-12-22T12:42:01;10.30;;;3.03;;
21392;SDS011;10857;52.228;21.026;2023-12-22T12:44:29;6.97;;;2.70;;
21392;SDS011;10857;52.228;21.026;2023-12-22T12:46:59;11.63;;;2.80;;
21392;SDS011;10857;52.228;21.026;2023-12-22T12:49:37;7.90;;;2.90;;
21392;SDS011;10857;52.228;21.026;2023-12-22T12:52:04;10.33;;;4.03;;
21392;SDS011;10857;52.228;21.026;2023-12-22T12:54:32;9.43;;;3.20;;
21392;SDS011;10857;52.228;21.026;2023-12-22T12:56:59;8.80;;;3.30;;
21392;SDS011;10857;52.228;21.026;2023-12-22T12:59:26;8.33;;;3.60;;
21392;SDS011;10857;52.228;21.026;2023-12-22T13:01:53;9.27;;;3.50;;
21392;SDS011;10857;52.228;21.026;2023-12-22T13:04:21;8.87;;;2.80;;
21392;SDS011;10857;52.228;21.026;2023-12-22T13:06:49;10.67;;;3.67;;
21392;SDS011;10857;52.228;21.026;2023-12-22T13:09:17;9.63;;;3.30;;
21392;SDS011;10857;52.228;21.026;2023-12-22T13:11:46;10.30;;;3.27;;
21392;SDS011;10857;52.228;21.026;2023-12-22T13:14:21;8.87;;;3.40;;
21392;SDS011;10857;52.228;21.026;2023-12-22T13:16:52;9.60;;;3.80;;
21392;SDS011;10857;52.228;21.026;2023-12-22T13:19:24;9.17;;;4.00;;
21392;SDS011;10857;52.228;21.026;2023-12-22T13:21:53;11.80;;;3.17;;
21392;SDS011;10857;52.228;21.026;2023-12-22T13:24:21;11.00;;;4.50;;
21392;SDS011;10857;52.228;21.026;2023-12-22T13:26:58;10.50;;;4.17;;
21392;SDS011;10857;52.228;21.026;2023-12-22T13:29:43;12.83;;;4.37;;
21392;SDS011;10857;52.228;21.026;2023-12-22T13:32:18;8.03;;;3.87;;
21392;SDS011;10857;52.228;21.026;2023-12-22T13:34:55;10.07;;;4.03;;
21392;SDS011;10857;52.228;21.026;2023-12-22T13:37:24;6.77;;;4.03;;
21392;SDS011;10857;52.228;21.026;2023-12-22T13:39:57;12.00;;;4.43;;
21392;SDS011;10857;52.228;21.026;2023-12-22T13:42:24;7.80;;;4.17;;
21392;SDS011;10857;52.228;21.026;2023-12-22T13:44:52;11.00;;;4.30;;
21392;SDS011;10857;52.228;21.026;2023-12-22T13:47:19;10.33;;;3.90;;
21392;SDS011;10857;52.228;21.026;2023-12-22T13:49:46;10.68;;;4.80;;
21392;SDS011;10857;52.228;21.026;2023-12-22T13:52:27;10.83;;;4.07;;
21392;SDS011;10857;52.228;21.026;2023-12-22T13:54:57;11.40;;;4.63;;
21392;SDS011;10857;52.228;21.026;2023-12-22T13:57:27;13.73;;;4.50;;
21392;SDS011;10857;52.228;21.026;2023-12-22T13:59:55;13.10;;;4.90;;
21392;SDS011;10857;52.228;21.026;2023-12-22T14:02:22;10.80;;;4.70;;
21392;SDS011;10857;52.228;21.026;2023-12-22T14:04:52;13.07;;;4.03;;
21392;SDS011;10857;52.228;21.026;2023-12-22T14:07:19;14.60;;;4.40;;
21392;SDS011;10857;52.228;21.026;2023-12-22T14:09:47;13.57;;;4.70;;
21392;SDS011;10857;52.228;21.026;2023-12-22T14:12:14;10.37;;;4.10;;
21392;SDS011;10857;52.228;21.026;2023-12-22T14:14:50;13.57;;;4.80;;
21392;SDS011;10857;52.228;21.026;2023-12-22T14:17:17;11.37;;;4.67;;
21392;SDS011;10857;52.228;21.026;2023-12-22T14:19:46;17.10;;;5.33;;
21392;SDS011;10857;52.228;21.026;2023-12-22T14:22:15;12.63;;;5.50;;
21392;SDS011;10857;52.228;21.026;2023-12-22T14:24:43;10.60;;;4.30;;
21392;SDS011;10857;52.228;21.026;2023-12-22T14:27:10;13.87;;;5.63;;
21392;SDS011;10857;52.228;21.026;2023-12-22T14:29:37;11.87;;;4.47;;
21392;SDS011;10857;52.228;21.026;2023-12-22T14:32:07;12.73;;;5.33;;
21392;SDS011;10857;52.228;21.026;2023-12-22T14:34:41;8.70;;;4.13;;
21392;SDS011;10857;52.228;21.026;2023-12-22T14:37:08;11.37;;;4.70;;
21392;SDS011;10857;52.228;21.026;2023-12-22T14:39:35;12.10;;;5.40;;